sensor_id;sensor_type;location;lat;lon;timestamp;temperature;humidity
10282;DHT22;5186;59.472;18.048;2022-12-24T00:02:13;-5.50;99.90
10282;DHT22;5186;59.472;18.048;2022-12-24T00:04:38;-5.40;99.90
10282;DHT22;5186;59.472;18.048;2022-12-24T00:07:04;-5.40;99.90
10282;DHT22;5186;59.472;18.048;2022-12-24T00:09:29;-5.40;99.90
10282;DHT22;5186;59.472;18.048;2022-12-24T00:11:55;-5.50;99.90
10282;DHT22;5186;59.472;18.048;2022-12-24T00:14:21;-5.50;99.90
10282;DHT22;5186;59.472;18.048;2022-12-24T00:16:46;-5.50;99.90
10282;DHT22;5186;59.472;18.048;2022-12-24T00:19:12;-5.50;99.90
10282;DHT22;5186;59.472;18.048;2022-12-24T00:21:38;-5.50;99.90
10282;DHT22;5186;59.472;18.048;2022-12-24T00:24:04;-5.50;99.90
10282;DHT22;5186;59.472;18.048;2022-12-24T00:26:33;-5.50;99.90
10282;DHT22;5186;59.472;18.048;2022-12-24T00:28:59;-5.50;99.90
10282;DHT22;5186;59.472;18.048;2022-12-24T00:31:25;-5.40;99.90
10282;DHT22;5186;59.472;18.048;2022-12-24T00:33:50;-5.40;99.90
10282;DHT22;5186;59.472;18.048;2022-12-24T00:36:17;-5.40;99.90
10282;DHT22;5186;59.472;18.048;2022-12-24T00:38:43;-5.50;99.90
10282;DHT22;5186;59.472;18.048;2022-12-24T00:41:10;-5.50;99.90
10282;DHT22;5186;59.472;18.048;2022-12-24T00:43:58;-5.50;99.90
10282;DHT22;5186;59.472;18.048;2022-12-24T00:46:25;-5.50;99.90
10282;DHT22;5186;59.472;18.048;2022-12-24T00:48:51;-5.60;99.90
10282;DHT22;5186;59.472;18.048;2022-12-24T00:51:17;-5.60;99.90
10282;DHT22;5186;59.472;18.048;2022-12-24T00:53:43;-5.70;99.90
10282;DHT22;5186;59.472;18.048;2022-12-24T00:56:09;-5.70;99.90
10282;DHT22;5186;59.472;18.048;2022-12-24T00:58:34;-5.70;99.90
10282;DHT22;5186;59.472;18.048;2022-12-24T01:01:00;-5.70;99.90
10282;DHT22;5186;59.472;18.048;2022-12-24T01:03:26;-5.70;99.90
10282;DHT22;5186;59.472;18.048;2022-12-24T01:06:10;-5.70;99.90
10282;DHT22;5186;59.472;18.048;2022-12-24T01:08:37;-5.70;99.90
10282;DHT22;5186;59.472;18.048;2022-12-24T01:11:05;-5.70;99.90
10282;DHT22;5186;59.472;18.048;2022-12-24T01:13:30;-5.80;99.90
10282;DHT22;5186;59.472;18.048;2022-12-24T01:15:56;-5.70;99.90
10282;DHT22;5186;59.472;18.048;2022-12-24T01:18:22;-5.80;99.90
10282;DHT22;5186;59.472;18.048;2022-12-24T01:21:00;-5.80;99.90
10282;DHT22;5186;59.472;18.048;2022-12-24T01:23:27;-5.80;99.90
10282;DHT22;5186;59.472;18.048;2022-12-24T01:25:54;-5.80;99.90
10282;DHT22;5186;59.472;18.048;2022-12-24T01:28:20;-5.80;99.90
10282;DHT22;5186;59.472;18.048;2022-12-24T01:30:46;-5.80;99.90
10282;DHT22;5186;59.472;18.048;2022-12-24T01:33:12;-5.90;99.90
10282;DHT22;5186;59.472;18.048;2022-12-24T01:35:39;-5.90;99.90
10282;DHT22;5186;59.472;18.048;2022-12-24T01:38:05;-6.00;99.90
10282;DHT22;5186;59.472;18.048;2022-12-24T01:40:30;-6.00;99.90
10282;DHT22;5186;59.472;18.048;2022-12-24T01:43:19;-6.00;99.90
10282;DHT22;5186;59.472;18.048;2022-12-24T01:48:25;-6.00;99.90
10282;DHT22;5186;59.472;18.048;2022-12-24T01:51:05;-6.10;99.90
10282;DHT22;5186;59.472;18.048;2022-12-24T01:53:33;-6.10;99.90
10282;DHT22;5186;59.472;18.048;2022-12-24T01:56:01;-6.10;99.90
10282;DHT22;5186;59.472;18.048;2022-12-24T01:58:27;-6.10;99.90
10282;DHT22;5186;59.472;18.048;2022-12-24T02:00:53;-6.10;99.90
10282;DHT22;5186;59.472;18.048;2022-12-24T02:03:19;-6.20;99.90
10282;DHT22;5186;59.472;18.048;2022-12-24T02:05:51;-6.20;99.90
10282;DHT22;5186;59.472;18.048;2022-12-24T02:08:18;-6.20;99.90
10282;DHT22;5186;59.472;18.048;2022-12-24T02:10:44;-6.20;99.90
10282;DHT22;5186;59.472;18.048;2022-12-24T02:13:11;-6.20;99.90
10282;DHT22;5186;59.472;18.048;2022-12-24T02:16:01;-6.20;99.90
10282;DHT22;5186;59.472;18.048;2022-12-24T02:18:42;-6.10;99.90
10282;DHT22;5186;59.472;18.048;2022-12-24T02:21:33;-6.20;99.90
10282;DHT22;5186;59.472;18.048;2022-12-24T02:27:13;-6.20;99.90
10282;DHT22;5186;59.472;18.048;2022-12-24T02:32:43;-6.30;99.90
10282;DHT22;5186;59.472;18.048;2022-12-24T02:35:11;-6.30;99.90
10282;DHT22;5186;59.472;18.048;2022-12-24T02:38:04;-6.30;99.90
10282;DHT22;5186;59.472;18.048;2022-12-24T02:40:42;-6.40;99.90
10282;DHT22;5186;59.472;18.048;2022-12-24T02:43:14;-6.40;99.90
10282;DHT22;5186;59.472;18.048;2022-12-24T02:45:45;-6.40;99.90
10282;DHT22;5186;59.472;18.048;2022-12-24T02:48:14;-6.40;99.90
10282;DHT22;5186;59.472;18.048;2022-12-24T02:50:57;-6.40;99.90
10282;DHT22;5186;59.472;18.048;2022-12-24T02:53:23;-6.40;99.90
10282;DHT22;5186;59.472;18.048;2022-12-24T02:56:20;-6.30;99.90
10282;DHT22;5186;59.472;18.048;2022-12-24T03:07:21;-6.30;99.90
10282;DHT22;5186;59.472;18.048;2022-12-24T03:13:05;-6.40;99.90
10282;DHT22;5186;59.472;18.048;2022-12-24T03:15:32;-6.40;99.90
10282;DHT22;5186;59.472;18.048;2022-12-24T03:18:01;-6.40;99.90
10282;DHT22;5186;59.472;18.048;2022-12-24T03:20:35;-6.50;99.90
10282;DHT22;5186;59.472;18.048;2022-12-24T03:23:02;-6.50;99.90
10282;DHT22;5186;59.472;18.048;2022-12-24T03:25:28;-6.50;99.90
10282;DHT22;5186;59.472;18.048;2022-12-24T03:27:55;-6.50;99.90
10282;DHT22;5186;59.472;18.048;2022-12-24T03:30:21;-6.50;99.90
10282;DHT22;5186;59.472;18.048;2022-12-24T03:32:47;-6.50;99.90
10282;DHT22;5186;59.472;18.048;2022-12-24T03:35:13;-6.50;99.90
10282;DHT22;5186;59.472;18.048;2022-12-24T03:37:39;-6.50;99.90
10282;DHT22;5186;59.472;18.048;2022-12-24T03:40:05;-6.50;99.90
10282;DHT22;5186;59.472;18.048;2022-12-24T03:42:31;-6.40;99.90
10282;DHT22;5186;59.472;18.048;2022-12-24T03:44:57;-6.40;99.90
10282;DHT22;5186;59.472;18.048;2022-12-24T03:47:22;-6.40;99.90
10282;DHT22;5186;59.472;18.048;2022-12-24T03:49:48;-6.40;99.90
10282;DHT22;5186;59.472;18.048;2022-12-24T03:52:13;-6.40;99.90
10282;DHT22;5186;59.472;18.048;2022-12-24T03:54:39;-6.40;99.90
10282;DHT22;5186;59.472;18.048;2022-12-24T03:57:05;-6.50;99.90
10282;DHT22;5186;59.472;18.048;2022-12-24T03:59:30;-6.50;99.90
10282;DHT22;5186;59.472;18.048;2022-12-24T04:01:56;-6.40;99.90
10282;DHT22;5186;59.472;18.048;2022-12-24T04:04:22;-6.50;99.90
10282;DHT22;5186;59.472;18.048;2022-12-24T04:06:48;-6.50;99.90
10282;DHT22;5186;59.472;18.048;2022-12-24T04:09:13;-6.60;99.90
10282;DHT22;5186;59.472;18.048;2022-12-24T04:11:39;-6.60;99.90
10282;DHT22;5186;59.472;18.048;2022-12-24T04:14:04;-6.50;99.90
10282;DHT22;5186;59.472;18.048;2022-12-24T04:16:30;-6.50;99.90
10282;DHT22;5186;59.472;18.048;2022-12-24T04:18:56;-6.50;99.90
10282;DHT22;5186;59.472;18.048;2022-12-24T04:21:22;-6.50;99.90
10282;DHT22;5186;59.472;18.048;2022-12-24T04:23:47;-6.50;99.90
10282;DHT22;5186;59.472;18.048;2022-12-24T04:26:14;-6.60;99.90
10282;DHT22;5186;59.472;18.048;2022-12-24T04:28:42;-6.50;99.90
10282;DHT22;5186;59.472;18.048;2022-12-24T04:31:11;-6.60;99.90
10282;DHT22;5186;59.472;18.048;2022-12-24T04:33:37;-6.70;99.90
10282;DHT22;5186;59.472;18.048;2022-12-24T04:36:05;-6.70;99.90
10282;DHT22;5186;59.472;18.048;2022-12-24T04:38:31;-6.70;99.90
10282;DHT22;5186;59.472;18.048;2022-12-24T04:41:09;-6.70;99.90
10282;DHT22;5186;59.472;18.048;2022-12-24T04:43:34;-6.70;99.90
10282;DHT22;5186;59.472;18.048;2022-12-24T04:46:08;-6.80;99.90
10282;DHT22;5186;59.472;18.048;2022-12-24T04:48:34;-6.80;99.90
10282;DHT22;5186;59.472;18.048;2022-12-24T04:51:01;-6.80;99.90
10282;DHT22;5186;59.472;18.048;2022-12-24T04:53:27;-6.80;99.90
10282;DHT22;5186;59.472;18.048;2022-12-24T04:55:53;-6.80;99.90
10282;DHT22;5186;59.472;18.048;2022-12-24T04:58:18;-6.80;99.90
10282;DHT22;5186;59.472;18.048;2022-12-24T05:00:44;-6.70;99.90
10282;DHT22;5186;59.472;18.048;2022-12-24T05:03:09;-6.80;99.90
10282;DHT22;5186;59.472;18.048;2022-12-24T05:05:35;-6.80;99.90
10282;DHT22;5186;59.472;18.048;2022-12-24T05:08:01;-6.80;99.90
10282;DHT22;5186;59.472;18.048;2022-12-24T05:10:27;-6.80;99.90
10282;DHT22;5186;59.472;18.048;2022-12-24T05:12:52;-6.90;99.90
10282;DHT22;5186;59.472;18.048;2022-12-24T05:15:18;-6.90;99.90
10282;DHT22;5186;59.472;18.048;2022-12-24T05:17:43;-6.90;99.90
10282;DHT22;5186;59.472;18.048;2022-12-24T05:20:09;-6.90;99.90
10282;DHT22;5186;59.472;18.048;2022-12-24T05:22:35;-6.90;99.90
10282;DHT22;5186;59.472;18.048;2022-12-24T05:25:19;-7.00;99.90
10282;DHT22;5186;59.472;18.048;2022-12-24T05:28:03;-7.00;99.90
10282;DHT22;5186;59.472;18.048;2022-12-24T05:30:28;-7.00;99.90
10282;DHT22;5186;59.472;18.048;2022-12-24T05:32:54;-7.00;99.90
10282;DHT22;5186;59.472;18.048;2022-12-24T05:35:20;-7.10;99.90
10282;DHT22;5186;59.472;18.048;2022-12-24T05:37:45;-7.10;99.90
10282;DHT22;5186;59.472;18.048;2022-12-24T05:40:11;-7.10;99.90
10282;DHT22;5186;59.472;18.048;2022-12-24T05:42:37;-7.10;99.90
10282;DHT22;5186;59.472;18.048;2022-12-24T05:45:02;-7.00;99.90
10282;DHT22;5186;59.472;18.048;2022-12-24T05:47:28;-7.10;99.90
10282;DHT22;5186;59.472;18.048;2022-12-24T05:49:54;-7.10;99.90
10282;DHT22;5186;59.472;18.048;2022-12-24T05:52:19;-7.10;99.90
10282;DHT22;5186;59.472;18.048;2022-12-24T05:54:45;-7.10;99.90
10282;DHT22;5186;59.472;18.048;2022-12-24T05:57:10;-7.10;99.90
10282;DHT22;5186;59.472;18.048;2022-12-24T05:59:36;-7.00;99.90
10282;DHT22;5186;59.472;18.048;2022-12-24T06:02:02;-7.00;99.90
10282;DHT22;5186;59.472;18.048;2022-12-24T06:04:27;-7.00;99.90
10282;DHT22;5186;59.472;18.048;2022-12-24T06:06:53;-7.00;99.90
10282;DHT22;5186;59.472;18.048;2022-12-24T06:09:18;-7.10;99.90
10282;DHT22;5186;59.472;18.048;2022-12-24T06:11:46;-7.10;99.90
10282;DHT22;5186;59.472;18.048;2022-12-24T06:14:12;-7.10;99.90
10282;DHT22;5186;59.472;18.048;2022-12-24T06:16:38;-7.10;99.90
10282;DHT22;5186;59.472;18.048;2022-12-24T06:19:03;-7.10;99.90
10282;DHT22;5186;59.472;18.048;2022-12-24T06:21:29;-7.20;99.90
10282;DHT22;5186;59.472;18.048;2022-12-24T06:23:55;-7.10;99.90
10282;DHT22;5186;59.472;18.048;2022-12-24T06:26:21;-7.20;99.90
10282;DHT22;5186;59.472;18.048;2022-12-24T06:28:48;-7.10;99.90
10282;DHT22;5186;59.472;18.048;2022-12-24T06:31:17;-7.20;99.90
10282;DHT22;5186;59.472;18.048;2022-12-24T06:33:43;-7.20;99.90
10282;DHT22;5186;59.472;18.048;2022-12-24T06:36:17;-7.20;99.90
10282;DHT22;5186;59.472;18.048;2022-12-24T06:38:43;-7.20;99.90
10282;DHT22;5186;59.472;18.048;2022-12-24T06:41:09;-7.20;99.90
10282;DHT22;5186;59.472;18.048;2022-12-24T06:43:35;-7.30;99.90
10282;DHT22;5186;59.472;18.048;2022-12-24T06:46:02;-7.30;99.90
10282;DHT22;5186;59.472;18.048;2022-12-24T06:48:28;-7.30;99.90
10282;DHT22;5186;59.472;18.048;2022-12-24T06:50:53;-7.30;99.90
10282;DHT22;5186;59.472;18.048;2022-12-24T06:53:19;-7.30;99.90
10282;DHT22;5186;59.472;18.048;2022-12-24T06:55:44;-7.30;99.90
10282;DHT22;5186;59.472;18.048;2022-12-24T06:58:10;-7.30;99.90
10282;DHT22;5186;59.472;18.048;2022-12-24T07:00:36;-7.30;99.90
10282;DHT22;5186;59.472;18.048;2022-12-24T07:03:02;-7.30;99.90
10282;DHT22;5186;59.472;18.048;2022-12-24T07:05:28;-7.30;99.90
10282;DHT22;5186;59.472;18.048;2022-12-24T07:07:54;-7.30;99.90
10282;DHT22;5186;59.472;18.048;2022-12-24T07:10:20;-7.30;99.90
10282;DHT22;5186;59.472;18.048;2022-12-24T07:12:47;-7.30;99.90
10282;DHT22;5186;59.472;18.048;2022-12-24T07:15:13;-7.40;99.90
10282;DHT22;5186;59.472;18.048;2022-12-24T07:17:39;-7.40;99.90
10282;DHT22;5186;59.472;18.048;2022-12-24T07:20:07;-7.40;99.90
10282;DHT22;5186;59.472;18.048;2022-12-24T07:22:33;-7.40;99.90
10282;DHT22;5186;59.472;18.048;2022-12-24T07:24:59;-7.40;99.90
10282;DHT22;5186;59.472;18.048;2022-12-24T07:27:24;-7.40;99.90
10282;DHT22;5186;59.472;18.048;2022-12-24T07:29:50;-7.40;99.90
10282;DHT22;5186;59.472;18.048;2022-12-24T07:32:16;-7.40;99.90
10282;DHT22;5186;59.472;18.048;2022-12-24T07:34:41;-7.40;99.90
10282;DHT22;5186;59.472;18.048;2022-12-24T07:37:07;-7.40;99.90
10282;DHT22;5186;59.472;18.048;2022-12-24T07:39:33;-7.40;99.90
10282;DHT22;5186;59.472;18.048;2022-12-24T07:41:58;-7.40;99.90
10282;DHT22;5186;59.472;18.048;2022-12-24T07:44:24;-7.40;99.90
10282;DHT22;5186;59.472;18.048;2022-12-24T07:46:50;-7.40;99.90
10282;DHT22;5186;59.472;18.048;2022-12-24T07:49:15;-7.40;99.90
10282;DHT22;5186;59.472;18.048;2022-12-24T07:51:41;-7.40;99.90
10282;DHT22;5186;59.472;18.048;2022-12-24T07:54:07;-7.40;99.90
10282;DHT22;5186;59.472;18.048;2022-12-24T07:56:33;-7.40;99.90
10282;DHT22;5186;59.472;18.048;2022-12-24T07:58:59;-7.50;99.90
10282;DHT22;5186;59.472;18.048;2022-12-24T08:01:24;-7.50;99.90
10282;DHT22;5186;59.472;18.048;2022-12-24T08:03:50;-7.50;99.90
10282;DHT22;5186;59.472;18.048;2022-12-24T08:06:21;-7.50;99.90
10282;DHT22;5186;59.472;18.048;2022-12-24T08:08:47;-7.50;99.90
10282;DHT22;5186;59.472;18.048;2022-12-24T08:11:13;-7.50;99.90
10282;DHT22;5186;59.472;18.048;2022-12-24T08:13:39;-7.50;99.90
10282;DHT22;5186;59.472;18.048;2022-12-24T08:16:05;-7.50;99.90
10282;DHT22;5186;59.472;18.048;2022-12-24T08:18:31;-7.50;99.90
10282;DHT22;5186;59.472;18.048;2022-12-24T08:20:56;-7.50;99.90
10282;DHT22;5186;59.472;18.048;2022-12-24T08:23:22;-7.50;99.90
10282;DHT22;5186;59.472;18.048;2022-12-24T08:25:48;-7.50;99.90
10282;DHT22;5186;59.472;18.048;2022-12-24T08:28:16;-7.50;99.90
10282;DHT22;5186;59.472;18.048;2022-12-24T08:30:42;-7.50;99.90
10282;DHT22;5186;59.472;18.048;2022-12-24T08:33:09;-7.50;99.90
10282;DHT22;5186;59.472;18.048;2022-12-24T08:35:34;-7.50;99.90
10282;DHT22;5186;59.472;18.048;2022-12-24T08:38:00;-7.50;99.90
10282;DHT22;5186;59.472;18.048;2022-12-24T08:40:26;-7.50;99.90
10282;DHT22;5186;59.472;18.048;2022-12-24T08:42:52;-7.50;99.90
10282;DHT22;5186;59.472;18.048;2022-12-24T08:45:18;-7.50;99.90
10282;DHT22;5186;59.472;18.048;2022-12-24T08:47:43;-7.40;99.90
10282;DHT22;5186;59.472;18.048;2022-12-24T08:50:10;-7.40;99.90
10282;DHT22;5186;59.472;18.048;2022-12-24T08:52:36;-7.40;99.90
10282;DHT22;5186;59.472;18.048;2022-12-24T08:55:03;-7.40;99.90
10282;DHT22;5186;59.472;18.048;2022-12-24T08:57:28;-7.40;99.90
10282;DHT22;5186;59.472;18.048;2022-12-24T08:59:54;-7.40;99.90
10282;DHT22;5186;59.472;18.048;2022-12-24T09:02:20;-7.30;99.90
10282;DHT22;5186;59.472;18.048;2022-12-24T09:04:45;-7.30;99.90
10282;DHT22;5186;59.472;18.048;2022-12-24T09:07:11;-7.30;99.90
10282;DHT22;5186;59.472;18.048;2022-12-24T09:09:37;-7.20;99.90
10282;DHT22;5186;59.472;18.048;2022-12-24T09:12:06;-7.20;99.90
10282;DHT22;5186;59.472;18.048;2022-12-24T09:14:32;-7.20;99.90
10282;DHT22;5186;59.472;18.048;2022-12-24T09:16:58;-7.20;99.90
10282;DHT22;5186;59.472;18.048;2022-12-24T09:19:24;-7.20;99.90
10282;DHT22;5186;59.472;18.048;2022-12-24T09:21:49;-7.10;99.90
10282;DHT22;5186;59.472;18.048;2022-12-24T09:24:15;-7.10;99.90
10282;DHT22;5186;59.472;18.048;2022-12-24T09:26:41;-7.10;99.90
10282;DHT22;5186;59.472;18.048;2022-12-24T09:29:07;-7.00;99.90
10282;DHT22;5186;59.472;18.048;2022-12-24T09:31:34;-7.00;99.90
10282;DHT22;5186;59.472;18.048;2022-12-24T09:34:00;-7.00;99.90
10282;DHT22;5186;59.472;18.048;2022-12-24T09:36:25;-6.90;99.90
10282;DHT22;5186;59.472;18.048;2022-12-24T09:38:51;-6.90;99.90
10282;DHT22;5186;59.472;18.048;2022-12-24T09:46:43;-6.80;99.90
10282;DHT22;5186;59.472;18.048;2022-12-24T09:49:19;-6.70;99.90
10282;DHT22;5186;59.472;18.048;2022-12-24T09:51:55;-6.70;99.90
10282;DHT22;5186;59.472;18.048;2022-12-24T09:54:31;-6.70;99.90
10282;DHT22;5186;59.472;18.048;2022-12-24T09:57:07;-6.60;99.90
10282;DHT22;5186;59.472;18.048;2022-12-24T09:59:46;-6.50;99.90
10282;DHT22;5186;59.472;18.048;2022-12-24T10:02:17;-6.50;99.90
10282;DHT22;5186;59.472;18.048;2022-12-24T10:04:44;-6.40;99.90
10282;DHT22;5186;59.472;18.048;2022-12-24T10:07:35;-6.40;99.90
10282;DHT22;5186;59.472;18.048;2022-12-24T10:10:59;-6.40;99.90
10282;DHT22;5186;59.472;18.048;2022-12-24T10:13:38;-6.30;99.90
10282;DHT22;5186;59.472;18.048;2022-12-24T10:16:28;-6.20;99.90
10282;DHT22;5186;59.472;18.048;2022-12-24T10:19:09;-6.20;99.90
10282;DHT22;5186;59.472;18.048;2022-12-24T10:24:44;-6.00;99.90
10282;DHT22;5186;59.472;18.048;2022-12-24T10:27:13;-6.00;99.90
10282;DHT22;5186;59.472;18.048;2022-12-24T10:29:44;-5.90;99.90
10282;DHT22;5186;59.472;18.048;2022-12-24T10:32:24;-5.90;99.90
10282;DHT22;5186;59.472;18.048;2022-12-24T10:35:14;-5.80;99.90
10282;DHT22;5186;59.472;18.048;2022-12-24T10:37:47;-5.80;99.90
10282;DHT22;5186;59.472;18.048;2022-12-24T10:40:42;-5.70;99.90
10282;DHT22;5186;59.472;18.048;2022-12-24T10:43:29;-5.60;99.90
10282;DHT22;5186;59.472;18.048;2022-12-24T10:46:22;-5.50;99.90
10282;DHT22;5186;59.472;18.048;2022-12-24T10:48:54;-5.50;99.90
10282;DHT22;5186;59.472;18.048;2022-12-24T10:51:51;-5.40;99.90
10282;DHT22;5186;59.472;18.048;2022-12-24T10:54:20;-5.30;99.90
10282;DHT22;5186;59.472;18.048;2022-12-24T10:56:50;-5.20;99.90
10282;DHT22;5186;59.472;18.048;2022-12-24T10:59:48;-5.10;99.90
10282;DHT22;5186;59.472;18.048;2022-12-24T11:02:35;-5.00;99.90
10282;DHT22;5186;59.472;18.048;2022-12-24T11:05:02;-5.00;99.90
10282;DHT22;5186;59.472;18.048;2022-12-24T11:07:29;-4.90;99.90
10282;DHT22;5186;59.472;18.048;2022-12-24T11:09:57;-4.90;99.90
10282;DHT22;5186;59.472;18.048;2022-12-24T11:12:26;-4.80;99.90
10282;DHT22;5186;59.472;18.048;2022-12-24T11:18:11;-4.70;99.90
10282;DHT22;5186;59.472;18.048;2022-12-24T11:20:38;-4.60;99.90
10282;DHT22;5186;59.472;18.048;2022-12-24T11:23:04;-4.60;99.90
10282;DHT22;5186;59.472;18.048;2022-12-24T11:25:37;-4.50;99.90
10282;DHT22;5186;59.472;18.048;2022-12-24T11:28:27;-4.50;99.90
10282;DHT22;5186;59.472;18.048;2022-12-24T11:30:59;-4.40;99.90
10282;DHT22;5186;59.472;18.048;2022-12-24T11:33:26;-4.40;99.90
10282;DHT22;5186;59.472;18.048;2022-12-24T11:36:03;-4.30;99.90
10282;DHT22;5186;59.472;18.048;2022-12-24T11:38:32;-4.30;99.90
10282;DHT22;5186;59.472;18.048;2022-12-24T11:41:07;-4.30;99.90
10282;DHT22;5186;59.472;18.048;2022-12-24T11:43:37;-4.20;99.90
10282;DHT22;5186;59.472;18.048;2022-12-24T11:46:59;-4.20;99.90
10282;DHT22;5186;59.472;18.048;2022-12-24T11:51:39;-4.10;99.90
10282;DHT22;5186;59.472;18.048;2022-12-24T11:54:16;-4.00;99.90
10282;DHT22;5186;59.472;18.048;2022-12-24T11:56:50;-4.00;99.90
10282;DHT22;5186;59.472;18.048;2022-12-24T11:59:21;-4.00;99.90
10282;DHT22;5186;59.472;18.048;2022-12-24T12:02:01;-4.00;99.90
10282;DHT22;5186;59.472;18.048;2022-12-24T12:04:35;-4.00;99.90
10282;DHT22;5186;59.472;18.048;2022-12-24T12:07:10;-3.90;99.90
10282;DHT22;5186;59.472;18.048;2022-12-24T12:09:42;-4.00;99.90
10282;DHT22;5186;59.472;18.048;2022-12-24T12:12:18;-3.90;99.90
10282;DHT22;5186;59.472;18.048;2022-12-24T12:15:13;-3.90;99.90
10282;DHT22;5186;59.472;18.048;2022-12-24T12:17:45;-3.90;99.90
10282;DHT22;5186;59.472;18.048;2022-12-24T12:20:31;-3.80;99.90
10282;DHT22;5186;59.472;18.048;2022-12-24T12:23:19;-3.80;99.90
10282;DHT22;5186;59.472;18.048;2022-12-24T12:25:54;-3.80;99.90
10282;DHT22;5186;59.472;18.048;2022-12-24T12:28:27;-3.80;99.90
10282;DHT22;5186;59.472;18.048;2022-12-24T12:31:46;-3.80;99.90
10282;DHT22;5186;59.472;18.048;2022-12-24T12:34:28;-3.80;99.90
10282;DHT22;5186;59.472;18.048;2022-12-24T12:36:59;-3.80;99.90
10282;DHT22;5186;59.472;18.048;2022-12-24T12:39:29;-3.80;99.90
10282;DHT22;5186;59.472;18.048;2022-12-24T13:00:46;-4.10;99.90
10282;DHT22;5186;59.472;18.048;2022-12-24T13:05:52;-4.10;99.90
10282;DHT22;5186;59.472;18.048;2022-12-24T13:08:31;-4.10;99.90
10282;DHT22;5186;59.472;18.048;2022-12-24T13:11:51;-4.20;99.90
10282;DHT22;5186;59.472;18.048;2022-12-24T13:17:07;-4.30;99.90
10282;DHT22;5186;59.472;18.048;2022-12-24T13:22:16;-4.30;99.90
10282;DHT22;5186;59.472;18.048;2022-12-24T13:24:51;-4.40;99.90
10282;DHT22;5186;59.472;18.048;2022-12-24T13:27:29;-4.40;99.90
10282;DHT22;5186;59.472;18.048;2022-12-24T13:37:21;-4.50;99.90
10282;DHT22;5186;59.472;18.048;2022-12-24T13:50:51;-4.60;99.90
10282;DHT22;5186;59.472;18.048;2022-12-24T13:53:33;-4.70;99.90
10282;DHT22;5186;59.472;18.048;2022-12-24T13:56:18;-4.60;99.90
10282;DHT22;5186;59.472;18.048;2022-12-24T13:58:46;-4.70;99.90
10282;DHT22;5186;59.472;18.048;2022-12-24T14:01:15;-4.80;99.90
10282;DHT22;5186;59.472;18.048;2022-12-24T14:03:58;-4.80;99.90
10282;DHT22;5186;59.472;18.048;2022-12-24T14:06:31;-4.80;99.90
10282;DHT22;5186;59.472;18.048;2022-12-24T14:09:09;-4.90;99.90
10282;DHT22;5186;59.472;18.048;2022-12-24T14:14:32;-5.00;99.90
10282;DHT22;5186;59.472;18.048;2022-12-24T14:17:02;-5.00;99.90
10282;DHT22;5186;59.472;18.048;2022-12-24T14:19:50;-5.10;99.90
10282;DHT22;5186;59.472;18.048;2022-12-24T14:22:24;-5.10;99.90
10282;DHT22;5186;59.472;18.048;2022-12-24T14:25:15;-5.10;99.90
10282;DHT22;5186;59.472;18.048;2022-12-24T14:27:44;-5.20;99.90
10282;DHT22;5186;59.472;18.048;2022-12-24T14:30:24;-5.20;99.90
10282;DHT22;5186;59.472;18.048;2022-12-24T14:32:51;-5.30;99.90
10282;DHT22;5186;59.472;18.048;2022-12-24T14:37:48;-5.30;99.90
10282;DHT22;5186;59.472;18.048;2022-12-24T14:40:21;-5.30;99.90
10282;DHT22;5186;59.472;18.048;2022-12-24T14:43:04;-5.40;99.90
10282;DHT22;5186;59.472;18.048;2022-12-24T14:46:06;-5.40;99.90
10282;DHT22;5186;59.472;18.048;2022-12-24T14:48:56;-5.40;99.90
10282;DHT22;5186;59.472;18.048;2022-12-24T14:54:36;-5.50;99.90
10282;DHT22;5186;59.472;18.048;2022-12-24T14:59:57;-5.60;99.90
10282;DHT22;5186;59.472;18.048;2022-12-24T15:05:11;-5.60;99.90
10282;DHT22;5186;59.472;18.048;2022-12-24T15:07:42;-5.60;99.90
10282;DHT22;5186;59.472;18.048;2022-12-24T15:10:27;-5.60;99.90
10282;DHT22;5186;59.472;18.048;2022-12-24T15:12:54;-5.60;99.90
10282;DHT22;5186;59.472;18.048;2022-12-24T15:15:20;-5.70;99.90
10282;DHT22;5186;59.472;18.048;2022-12-24T15:17:46;-5.70;99.90
10282;DHT22;5186;59.472;18.048;2022-12-24T15:20:24;-5.60;99.90
10282;DHT22;5186;59.472;18.048;2022-12-24T15:22:52;-5.60;99.90
10282;DHT22;5186;59.472;18.048;2022-12-24T15:25:25;-5.60;99.90
10282;DHT22;5186;59.472;18.048;2022-12-24T15:27:51;-5.70;99.90
10282;DHT22;5186;59.472;18.048;2022-12-24T15:30:25;-5.70;99.90
10282;DHT22;5186;59.472;18.048;2022-12-24T15:32:56;-5.70;99.90
10282;DHT22;5186;59.472;18.048;2022-12-24T15:35:33;-5.70;99.90
10282;DHT22;5186;59.472;18.048;2022-12-24T15:38:02;-5.80;99.90
10282;DHT22;5186;59.472;18.048;2022-12-24T15:40:30;-5.80;99.90
10282;DHT22;5186;59.472;18.048;2022-12-24T15:42:59;-5.90;99.90
10282;DHT22;5186;59.472;18.048;2022-12-24T15:45:29;-5.90;99.90
10282;DHT22;5186;59.472;18.048;2022-12-24T15:48:17;-5.90;99.90
10282;DHT22;5186;59.472;18.048;2022-12-24T15:50:54;-6.00;99.90
10282;DHT22;5186;59.472;18.048;2022-12-24T15:53:40;-6.00;99.90
10282;DHT22;5186;59.472;18.048;2022-12-24T15:56:13;-6.00;99.90
10282;DHT22;5186;59.472;18.048;2022-12-24T15:58:51;-6.10;99.90
10282;DHT22;5186;59.472;18.048;2022-12-24T16:01:25;-6.10;99.90
10282;DHT22;5186;59.472;18.048;2022-12-24T16:06:19;-6.10;99.90
10282;DHT22;5186;59.472;18.048;2022-12-24T16:08:45;-6.20;99.90
10282;DHT22;5186;59.472;18.048;2022-12-24T16:11:24;-6.10;99.90
10282;DHT22;5186;59.472;18.048;2022-12-24T16:14:14;-6.20;99.90
10282;DHT22;5186;59.472;18.048;2022-12-24T16:16:48;-6.30;99.90
10282;DHT22;5186;59.472;18.048;2022-12-24T16:19:37;-6.30;99.90
10282;DHT22;5186;59.472;18.048;2022-12-24T16:22:03;-6.30;99.90
10282;DHT22;5186;59.472;18.048;2022-12-24T16:24:49;-6.30;99.90
10282;DHT22;5186;59.472;18.048;2022-12-24T16:27:17;-6.40;99.90
10282;DHT22;5186;59.472;18.048;2022-12-24T16:29:42;-6.40;99.90
10282;DHT22;5186;59.472;18.048;2022-12-24T16:32:31;-6.40;99.90
10282;DHT22;5186;59.472;18.048;2022-12-24T16:34:57;-6.40;99.90
10282;DHT22;5186;59.472;18.048;2022-12-24T16:37:23;-6.40;99.90
10282;DHT22;5186;59.472;18.048;2022-12-24T16:39:49;-6.40;99.90
10282;DHT22;5186;59.472;18.048;2022-12-24T16:42:14;-6.50;99.90
10282;DHT22;5186;59.472;18.048;2022-12-24T16:45:01;-6.50;99.90
10282;DHT22;5186;59.472;18.048;2022-12-24T16:47:29;-6.50;99.90
10282;DHT22;5186;59.472;18.048;2022-12-24T16:49:57;-6.50;99.90
10282;DHT22;5186;59.472;18.048;2022-12-24T16:52:25;-6.50;99.90
10282;DHT22;5186;59.472;18.048;2022-12-24T16:54:53;-6.50;99.90
10282;DHT22;5186;59.472;18.048;2022-12-24T16:57:19;-6.50;99.90
10282;DHT22;5186;59.472;18.048;2022-12-24T16:59:47;-6.50;99.90
10282;DHT22;5186;59.472;18.048;2022-12-24T17:02:15;-6.50;99.90
10282;DHT22;5186;59.472;18.048;2022-12-24T17:04:44;-6.50;99.90
10282;DHT22;5186;59.472;18.048;2022-12-24T17:07:14;-6.50;99.90
10282;DHT22;5186;59.472;18.048;2022-12-24T17:09:40;-6.60;99.90
10282;DHT22;5186;59.472;18.048;2022-12-24T17:12:06;-6.60;99.90
10282;DHT22;5186;59.472;18.048;2022-12-24T17:14:32;-6.60;99.90
10282;DHT22;5186;59.472;18.048;2022-12-24T17:16:57;-6.60;99.90
10282;DHT22;5186;59.472;18.048;2022-12-24T17:19:24;-6.60;99.90
10282;DHT22;5186;59.472;18.048;2022-12-24T17:21:50;-6.70;99.90
10282;DHT22;5186;59.472;18.048;2022-12-24T17:24:15;-6.70;99.90
10282;DHT22;5186;59.472;18.048;2022-12-24T17:26:41;-6.70;99.90
10282;DHT22;5186;59.472;18.048;2022-12-24T17:29:13;-6.70;99.90